Terminal Aerodrome Forecast
Issued by NWS Binghamton, NY

Home | Current Version | Previous Version | Text Only | Print | Product List | Glossary On
Versions: 1 2 3 4 5 6 7 8 9 10 11 12 13 14 15 16 17 18 19 20 21 22
000
FTUS41 KBGM 011100
TAFSYR
TAF
KSYR 011128Z 0112/0212 35008KT P6SM -SN OVC015
      TEMPO 0112/0114 SCT015 OVC040
     FM011400 36006KT P6SM BKN040
     FM020100 05005KT 1 1/2SM -SN OVC015
     FM020600 07008KT 1/2SM SN BKN008 OVC015=

USA.gov is the U.S. government's official web portal to all federal, state and local government web resources and services.